sensor_id;sensor_type;location;lat;lon;timestamp;P1;durP1;ratioP1;P2;durP2;ratioP2
17614;SDS011;8926;49.720;6.576;2023-02-28T00:01:01;1.30;;;1.10;;
17614;SDS011;8926;49.720;6.576;2023-02-28T00:03:27;1.00;;;1.00;;
17614;SDS011;8926;49.720;6.576;2023-02-28T00:05:52;1.40;;;1.30;;
17614;SDS011;8926;49.720;6.576;2023-02-28T00:08:17;1.57;;;1.47;;
17614;SDS011;8926;49.720;6.576;2023-02-28T00:10:42;1.67;;;1.57;;
17614;SDS011;8926;49.720;6.576;2023-02-28T00:13:08;1.93;;;1.50;;
17614;SDS011;8926;49.720;6.576;2023-02-28T00:15:33;1.50;;;1.40;;
17614;SDS011;8926;49.720;6.576;2023-02-28T00:17:59;1.40;;;1.30;;
17614;SDS011;8926;49.720;6.576;2023-02-28T00:20:24;1.30;;;1.20;;
17614;SDS011;8926;49.720;6.576;2023-02-28T00:22:50;1.30;;;1.20;;
17614;SDS011;8926;49.720;6.576;2023-02-28T00:25:18;1.10;;;1.10;;
17614;SDS011;8926;49.720;6.576;2023-02-28T00:27:45;0.90;;;0.90;;
17614;SDS011;8926;49.720;6.576;2023-02-28T00:30:13;1.00;;;1.00;;
17614;SDS011;8926;49.720;6.576;2023-02-28T00:32:40;1.50;;;1.40;;
17614;SDS011;8926;49.720;6.576;2023-02-28T00:35:06;1.10;;;1.10;;
17614;SDS011;8926;49.720;6.576;2023-02-28T00:37:32;1.23;;;1.20;;
17614;SDS011;8926;49.720;6.576;2023-02-28T00:39:58;1.40;;;1.40;;
17614;SDS011;8926;49.720;6.576;2023-02-28T00:42:24;0.80;;;0.80;;
17614;SDS011;8926;49.720;6.576;2023-02-28T00:44:49;1.10;;;1.00;;
17614;SDS011;8926;49.720;6.576;2023-02-28T00:47:15;1.10;;;0.77;;
17614;SDS011;8926;49.720;6.576;2023-02-28T00:49:41;0.90;;;0.80;;
17614;SDS011;8926;49.720;6.576;2023-02-28T00:52:06;0.97;;;0.67;;
17614;SDS011;8926;49.720;6.576;2023-02-28T00:54:31;0.80;;;0.80;;
17614;SDS011;8926;49.720;6.576;2023-02-28T00:56:57;0.70;;;0.70;;
17614;SDS011;8926;49.720;6.576;2023-02-28T00:59:22;1.17;;;1.07;;
17614;SDS011;8926;49.720;6.576;2023-02-28T01:01:47;0.80;;;0.80;;
17614;SDS011;8926;49.720;6.576;2023-02-28T01:04:13;0.87;;;0.87;;
17614;SDS011;8926;49.720;6.576;2023-02-28T01:06:39;1.50;;;1.20;;
17614;SDS011;8926;49.720;6.576;2023-02-28T01:09:05;1.07;;;1.00;;
17614;SDS011;8926;49.720;6.576;2023-02-28T01:11:31;0.80;;;0.80;;
17614;SDS011;8926;49.720;6.576;2023-02-28T01:13:58;0.90;;;0.90;;
17614;SDS011;8926;49.720;6.576;2023-02-28T01:16:24;1.00;;;1.00;;
17614;SDS011;8926;49.720;6.576;2023-02-28T01:18:50;0.80;;;0.80;;
17614;SDS011;8926;49.720;6.576;2023-02-28T01:21:16;0.97;;;0.97;;
17614;SDS011;8926;49.720;6.576;2023-02-28T01:23:43;0.90;;;0.90;;
17614;SDS011;8926;49.720;6.576;2023-02-28T01:26:10;1.67;;;1.17;;
17614;SDS011;8926;49.720;6.576;2023-02-28T01:28:39;1.13;;;1.00;;
17614;SDS011;8926;49.720;6.576;2023-02-28T01:31:05;1.70;;;1.33;;
17614;SDS011;8926;49.720;6.576;2023-02-28T01:33:30;1.40;;;1.30;;
17614;SDS011;8926;49.720;6.576;2023-02-28T01:36:00;1.23;;;1.13;;
17614;SDS011;8926;49.720;6.576;2023-02-28T01:38:30;1.57;;;1.47;;
17614;SDS011;8926;49.720;6.576;2023-02-28T01:40:55;1.43;;;1.30;;
17614;SDS011;8926;49.720;6.576;2023-02-28T01:43:23;1.20;;;1.10;;
17614;SDS011;8926;49.720;6.576;2023-02-28T01:45:53;1.53;;;1.43;;
17614;SDS011;8926;49.720;6.576;2023-02-28T01:48:21;1.20;;;1.10;;
17614;SDS011;8926;49.720;6.576;2023-02-28T01:50:51;1.40;;;1.30;;
17614;SDS011;8926;49.720;6.576;2023-02-28T01:53:18;0.97;;;0.97;;
17614;SDS011;8926;49.720;6.576;2023-02-28T01:55:49;1.43;;;1.33;;
17614;SDS011;8926;49.720;6.576;2023-02-28T01:58:17;1.30;;;1.30;;
17614;SDS011;8926;49.720;6.576;2023-02-28T02:00:43;0.93;;;0.93;;
17614;SDS011;8926;49.720;6.576;2023-02-28T02:03:09;0.90;;;0.90;;
17614;SDS011;8926;49.720;6.576;2023-02-28T02:05:38;1.30;;;1.20;;
17614;SDS011;8926;49.720;6.576;2023-02-28T02:08:05;1.30;;;1.20;;
17614;SDS011;8926;49.720;6.576;2023-02-28T02:18:16;2.60;;;1.50;;
17614;SDS011;8926;49.720;6.576;2023-02-28T02:23:56;1.10;;;1.10;;
17614;SDS011;8926;49.720;6.576;2023-02-28T02:26:55;1.40;;;1.30;;
17614;SDS011;8926;49.720;6.576;2023-02-28T02:29:47;1.20;;;1.10;;
17614;SDS011;8926;49.720;6.576;2023-02-28T02:32:25;1.47;;;1.37;;
17614;SDS011;8926;49.720;6.576;2023-02-28T02:35:31;1.27;;;1.03;;
17614;SDS011;8926;49.720;6.576;2023-02-28T02:38:17;1.37;;;1.27;;
17614;SDS011;8926;49.720;6.576;2023-02-28T02:40:46;1.07;;;0.97;;
17614;SDS011;8926;49.720;6.576;2023-02-28T02:43:22;1.00;;;1.00;;
17614;SDS011;8926;49.720;6.576;2023-02-28T02:45:59;1.40;;;1.27;;
17614;SDS011;8926;49.720;6.576;2023-02-28T02:48:31;1.80;;;1.10;;
17614;SDS011;8926;49.720;6.576;2023-02-28T02:51:00;1.30;;;1.20;;
17614;SDS011;8926;49.720;6.576;2023-02-28T02:53:32;1.20;;;1.07;;
17614;SDS011;8926;49.720;6.576;2023-02-28T02:56:01;1.30;;;1.20;;
17614;SDS011;8926;49.720;6.576;2023-02-28T02:58:31;0.87;;;0.80;;
17614;SDS011;8926;49.720;6.576;2023-02-28T03:01:00;1.20;;;1.10;;
17614;SDS011;8926;49.720;6.576;2023-02-28T03:03:28;1.10;;;1.00;;
17614;SDS011;8926;49.720;6.576;2023-02-28T03:05:59;1.53;;;1.27;;
17614;SDS011;8926;49.720;6.576;2023-02-28T03:08:27;1.30;;;1.20;;
17614;SDS011;8926;49.720;6.576;2023-02-28T03:10:58;0.90;;;0.80;;
17614;SDS011;8926;49.720;6.576;2023-02-28T03:18:47;0.80;;;0.80;;
17614;SDS011;8926;49.720;6.576;2023-02-28T03:23:56;0.90;;;0.90;;
17614;SDS011;8926;49.720;6.576;2023-02-28T03:26:41;0.90;;;0.90;;
17614;SDS011;8926;49.720;6.576;2023-02-28T03:29:14;1.10;;;0.93;;
17614;SDS011;8926;49.720;6.576;2023-02-28T03:31:50;0.87;;;0.87;;
17614;SDS011;8926;49.720;6.576;2023-02-28T03:36:50;0.60;;;0.60;;
17614;SDS011;8926;49.720;6.576;2023-02-28T03:39:37;0.80;;;0.80;;
17614;SDS011;8926;49.720;6.576;2023-02-28T03:42:11;1.30;;;1.20;;
17614;SDS011;8926;49.720;6.576;2023-02-28T03:45:15;0.80;;;0.80;;
17614;SDS011;8926;49.720;6.576;2023-02-28T03:50:10;1.13;;;1.03;;
17614;SDS011;8926;49.720;6.576;2023-02-28T03:53:01;1.17;;;1.07;;
17614;SDS011;8926;49.720;6.576;2023-02-28T03:55:30;2.20;;;1.03;;
17614;SDS011;8926;49.720;6.576;2023-02-28T04:01:09;1.00;;;1.00;;
17614;SDS011;8926;49.720;6.576;2023-02-28T04:03:47;1.00;;;0.90;;
17614;SDS011;8926;49.720;6.576;2023-02-28T04:06:15;1.17;;;1.17;;
17614;SDS011;8926;49.720;6.576;2023-02-28T04:08:42;1.30;;;1.13;;
17614;SDS011;8926;49.720;6.576;2023-02-28T04:13:39;1.60;;;1.30;;
17614;SDS011;8926;49.720;6.576;2023-02-28T04:16:08;1.00;;;1.00;;
17614;SDS011;8926;49.720;6.576;2023-02-28T04:18:36;1.20;;;1.10;;
17614;SDS011;8926;49.720;6.576;2023-02-28T04:21:05;1.60;;;1.50;;
17614;SDS011;8926;49.720;6.576;2023-02-28T04:23:31;1.60;;;1.50;;
17614;SDS011;8926;49.720;6.576;2023-02-28T04:25:57;1.30;;;1.30;;
17614;SDS011;8926;49.720;6.576;2023-02-28T04:28:22;1.00;;;1.00;;
17614;SDS011;8926;49.720;6.576;2023-02-28T04:30:47;1.47;;;1.37;;
17614;SDS011;8926;49.720;6.576;2023-02-28T04:33:18;2.23;;;1.83;;
17614;SDS011;8926;49.720;6.576;2023-02-28T04:35:43;2.00;;;1.90;;
17614;SDS011;8926;49.720;6.576;2023-02-28T04:38:09;2.20;;;2.10;;
17614;SDS011;8926;49.720;6.576;2023-02-28T04:40:35;1.80;;;1.70;;
17614;SDS011;8926;49.720;6.576;2023-02-28T04:43:00;2.17;;;1.90;;
17614;SDS011;8926;49.720;6.576;2023-02-28T04:45:25;2.00;;;1.90;;
17614;SDS011;8926;49.720;6.576;2023-02-28T04:47:50;2.07;;;1.97;;
17614;SDS011;8926;49.720;6.576;2023-02-28T04:50:16;1.93;;;1.83;;
17614;SDS011;8926;49.720;6.576;2023-02-28T04:52:41;1.80;;;1.57;;
17614;SDS011;8926;49.720;6.576;2023-02-28T04:55:06;1.90;;;1.80;;
17614;SDS011;8926;49.720;6.576;2023-02-28T04:57:32;2.03;;;1.93;;
17614;SDS011;8926;49.720;6.576;2023-02-28T04:59:57;1.83;;;1.73;;
17614;SDS011;8926;49.720;6.576;2023-02-28T05:02:23;2.20;;;2.10;;
17614;SDS011;8926;49.720;6.576;2023-02-28T05:04:48;2.60;;;2.40;;
17614;SDS011;8926;49.720;6.576;2023-02-28T05:07:13;2.83;;;2.63;;
17614;SDS011;8926;49.720;6.576;2023-02-28T05:09:39;4.40;;;3.13;;
17614;SDS011;8926;49.720;6.576;2023-02-28T05:12:04;2.37;;;2.23;;
17614;SDS011;8926;49.720;6.576;2023-02-28T05:14:29;2.60;;;2.40;;
17614;SDS011;8926;49.720;6.576;2023-02-28T05:16:55;2.57;;;2.37;;
17614;SDS011;8926;49.720;6.576;2023-02-28T05:19:20;2.43;;;2.23;;
17614;SDS011;8926;49.720;6.576;2023-02-28T05:21:53;2.60;;;2.40;;
17614;SDS011;8926;49.720;6.576;2023-02-28T05:24:19;2.20;;;2.00;;
17614;SDS011;8926;49.720;6.576;2023-02-28T05:26:48;2.60;;;2.40;;
17614;SDS011;8926;49.720;6.576;2023-02-28T05:29:15;2.90;;;2.70;;
17614;SDS011;8926;49.720;6.576;2023-02-28T05:31:40;2.83;;;2.63;;
17614;SDS011;8926;49.720;6.576;2023-02-28T05:34:05;3.00;;;2.80;;
17614;SDS011;8926;49.720;6.576;2023-02-28T05:36:31;3.00;;;2.80;;
17614;SDS011;8926;49.720;6.576;2023-02-28T05:38:57;3.00;;;2.80;;
17614;SDS011;8926;49.720;6.576;2023-02-28T05:41:22;2.67;;;2.57;;
17614;SDS011;8926;49.720;6.576;2023-02-28T05:43:48;3.00;;;2.80;;
17614;SDS011;8926;49.720;6.576;2023-02-28T05:46:14;2.93;;;2.73;;
17614;SDS011;8926;49.720;6.576;2023-02-28T05:48:40;2.67;;;2.47;;
17614;SDS011;8926;49.720;6.576;2023-02-28T05:51:07;2.73;;;2.60;;
17614;SDS011;8926;49.720;6.576;2023-02-28T05:53:33;3.03;;;2.83;;
17614;SDS011;8926;49.720;6.576;2023-02-28T05:55:59;3.67;;;3.37;;
17614;SDS011;8926;49.720;6.576;2023-02-28T05:58:25;3.60;;;3.30;;
17614;SDS011;8926;49.720;6.576;2023-02-28T06:00:54;3.40;;;3.10;;
17614;SDS011;8926;49.720;6.576;2023-02-28T06:03:19;3.53;;;3.33;;
17614;SDS011;8926;49.720;6.576;2023-02-28T06:05:44;3.60;;;3.40;;
17614;SDS011;8926;49.720;6.576;2023-02-28T06:08:10;3.70;;;3.50;;
17614;SDS011;8926;49.720;6.576;2023-02-28T06:10:35;3.60;;;3.30;;
17614;SDS011;8926;49.720;6.576;2023-02-28T06:13:01;3.60;;;3.37;;
17614;SDS011;8926;49.720;6.576;2023-02-28T06:15:27;3.80;;;3.43;;
17614;SDS011;8926;49.720;6.576;2023-02-28T06:17:53;4.10;;;3.80;;
17614;SDS011;8926;49.720;6.576;2023-02-28T06:20:18;3.70;;;3.47;;
17614;SDS011;8926;49.720;6.576;2023-02-28T06:22:44;3.90;;;3.60;;
17614;SDS011;8926;49.720;6.576;2023-02-28T06:25:09;4.33;;;4.03;;
17614;SDS011;8926;49.720;6.576;2023-02-28T06:27:35;4.00;;;3.70;;
17614;SDS011;8926;49.720;6.576;2023-02-28T06:30:00;4.03;;;3.73;;
17614;SDS011;8926;49.720;6.576;2023-02-28T06:32:26;3.70;;;3.40;;
17614;SDS011;8926;49.720;6.576;2023-02-28T06:34:51;3.00;;;2.80;;
17614;SDS011;8926;49.720;6.576;2023-02-28T06:37:17;3.90;;;3.60;;
17614;SDS011;8926;49.720;6.576;2023-02-28T06:39:42;3.13;;;2.93;;
17614;SDS011;8926;49.720;6.576;2023-02-28T06:42:08;3.37;;;3.13;;
17614;SDS011;8926;49.720;6.576;2023-02-28T06:44:33;3.43;;;3.23;;
17614;SDS011;8926;49.720;6.576;2023-02-28T06:47:02;5.10;;;4.70;;
17614;SDS011;8926;49.720;6.576;2023-02-28T06:49:29;3.83;;;3.53;;
17614;SDS011;8926;49.720;6.576;2023-02-28T06:51:55;4.97;;;4.57;;
17614;SDS011;8926;49.720;6.576;2023-02-28T06:54:21;4.77;;;4.43;;
17614;SDS011;8926;49.720;6.576;2023-02-28T06:56:46;3.60;;;3.30;;
17614;SDS011;8926;49.720;6.576;2023-02-28T06:59:12;4.67;;;4.37;;
17614;SDS011;8926;49.720;6.576;2023-02-28T07:01:37;4.33;;;4.03;;
17614;SDS011;8926;49.720;6.576;2023-02-28T07:04:03;4.90;;;4.50;;
17614;SDS011;8926;49.720;6.576;2023-02-28T07:06:30;4.53;;;4.13;;
17614;SDS011;8926;49.720;6.576;2023-02-28T07:08:56;3.80;;;3.60;;
17614;SDS011;8926;49.720;6.576;2023-02-28T07:11:22;4.80;;;4.30;;
17614;SDS011;8926;49.720;6.576;2023-02-28T07:13:50;5.57;;;5.17;;
17614;SDS011;8926;49.720;6.576;2023-02-28T07:16:16;5.47;;;4.87;;
17614;SDS011;8926;49.720;6.576;2023-02-28T07:18:42;5.30;;;4.80;;
17614;SDS011;8926;49.720;6.576;2023-02-28T07:21:08;5.97;;;5.50;;
17614;SDS011;8926;49.720;6.576;2023-02-28T07:23:35;4.10;;;3.80;;
17614;SDS011;8926;49.720;6.576;2023-02-28T07:26:00;4.50;;;4.20;;
17614;SDS011;8926;49.720;6.576;2023-02-28T07:28:26;4.23;;;3.90;;
17614;SDS011;8926;49.720;6.576;2023-02-28T07:30:52;4.23;;;3.93;;
17614;SDS011;8926;49.720;6.576;2023-02-28T07:33:17;4.50;;;4.20;;
17614;SDS011;8926;49.720;6.576;2023-02-28T07:35:43;4.20;;;3.93;;
17614;SDS011;8926;49.720;6.576;2023-02-28T07:38:08;3.80;;;3.60;;
17614;SDS011;8926;49.720;6.576;2023-02-28T07:40:34;3.87;;;3.57;;
17614;SDS011;8926;49.720;6.576;2023-02-28T07:43:01;3.70;;;3.50;;
17614;SDS011;8926;49.720;6.576;2023-02-28T07:45:27;3.77;;;3.57;;
17614;SDS011;8926;49.720;6.576;2023-02-28T07:47:53;4.00;;;3.70;;
17614;SDS011;8926;49.720;6.576;2023-02-28T07:50:19;3.70;;;3.50;;
17614;SDS011;8926;49.720;6.576;2023-02-28T07:52:44;3.83;;;3.53;;
17614;SDS011;8926;49.720;6.576;2023-02-28T07:55:10;3.30;;;3.10;;
17614;SDS011;8926;49.720;6.576;2023-02-28T07:57:35;2.70;;;2.60;;
17614;SDS011;8926;49.720;6.576;2023-02-28T08:00:05;2.90;;;2.70;;
17614;SDS011;8926;49.720;6.576;2023-02-28T08:02:32;3.10;;;2.90;;
17614;SDS011;8926;49.720;6.576;2023-02-28T08:04:57;3.33;;;3.03;;
17614;SDS011;8926;49.720;6.576;2023-02-28T08:07:23;3.10;;;2.90;;
17614;SDS011;8926;49.720;6.576;2023-02-28T08:09:48;3.70;;;3.47;;
17614;SDS011;8926;49.720;6.576;2023-02-28T08:12:13;3.00;;;2.80;;
17614;SDS011;8926;49.720;6.576;2023-02-28T08:14:38;2.73;;;2.53;;
17614;SDS011;8926;49.720;6.576;2023-02-28T08:17:04;4.90;;;4.60;;
17614;SDS011;8926;49.720;6.576;2023-02-28T08:19:30;5.03;;;4.73;;
17614;SDS011;8926;49.720;6.576;2023-02-28T08:21:55;3.40;;;3.20;;
17614;SDS011;8926;49.720;6.576;2023-02-28T08:24:21;3.33;;;3.03;;
17614;SDS011;8926;49.720;6.576;2023-02-28T08:26:46;2.90;;;2.80;;
17614;SDS011;8926;49.720;6.576;2023-02-28T08:29:12;3.13;;;2.93;;
17614;SDS011;8926;49.720;6.576;2023-02-28T08:31:37;2.83;;;2.63;;
17614;SDS011;8926;49.720;6.576;2023-02-28T08:34:07;3.00;;;2.73;;
17614;SDS011;8926;49.720;6.576;2023-02-28T08:36:37;3.67;;;3.37;;
17614;SDS011;8926;49.720;6.576;2023-02-28T08:39:03;2.73;;;2.53;;
17614;SDS011;8926;49.720;6.576;2023-02-28T08:41:29;3.20;;;2.93;;
17614;SDS011;8926;49.720;6.576;2023-02-28T08:43:55;2.90;;;2.70;;
17614;SDS011;8926;49.720;6.576;2023-02-28T08:46:20;3.00;;;2.80;;
17614;SDS011;8926;49.720;6.576;2023-02-28T08:48:46;3.53;;;2.90;;
17614;SDS011;8926;49.720;6.576;2023-02-28T08:51:12;2.77;;;2.57;;
17614;SDS011;8926;49.720;6.576;2023-02-28T08:53:41;3.20;;;3.00;;
17614;SDS011;8926;49.720;6.576;2023-02-28T08:56:07;3.10;;;2.80;;
17614;SDS011;8926;49.720;6.576;2023-02-28T08:58:34;3.27;;;3.07;;
17614;SDS011;8926;49.720;6.576;2023-02-28T09:01:00;3.13;;;2.93;;
17614;SDS011;8926;49.720;6.576;2023-02-28T09:03:31;3.17;;;2.97;;
17614;SDS011;8926;49.720;6.576;2023-02-28T09:05:58;3.10;;;2.90;;
17614;SDS011;8926;49.720;6.576;2023-02-28T09:08:26;3.03;;;2.83;;
17614;SDS011;8926;49.720;6.576;2023-02-28T09:10:53;2.83;;;2.70;;
17614;SDS011;8926;49.720;6.576;2023-02-28T09:13:19;3.07;;;2.87;;
17614;SDS011;8926;49.720;6.576;2023-02-28T09:15:45;2.70;;;2.50;;
17614;SDS011;8926;49.720;6.576;2023-02-28T09:18:11;3.33;;;3.13;;
17614;SDS011;8926;49.720;6.576;2023-02-28T09:20:37;3.57;;;3.30;;
17614;SDS011;8926;49.720;6.576;2023-02-28T09:23:04;3.13;;;2.83;;
17614;SDS011;8926;49.720;6.576;2023-02-28T09:25:30;2.43;;;2.33;;
17614;SDS011;8926;49.720;6.576;2023-02-28T09:30:48;2.80;;;2.60;;
17614;SDS011;8926;49.720;6.576;2023-02-28T09:33:15;3.30;;;3.00;;
17614;SDS011;8926;49.720;6.576;2023-02-28T09:35:42;2.50;;;2.33;;
17614;SDS011;8926;49.720;6.576;2023-02-28T09:38:08;2.53;;;2.43;;
17614;SDS011;8926;49.720;6.576;2023-02-28T09:40:39;2.90;;;2.20;;
17614;SDS011;8926;49.720;6.576;2023-02-28T09:43:14;2.63;;;2.50;;
17614;SDS011;8926;49.720;6.576;2023-02-28T09:45:41;2.70;;;2.57;;
17614;SDS011;8926;49.720;6.576;2023-02-28T09:53:33;3.00;;;2.80;;
17614;SDS011;8926;49.720;6.576;2023-02-28T09:56:20;3.10;;;2.90;;
17614;SDS011;8926;49.720;6.576;2023-02-28T09:59:01;3.73;;;3.40;;
17614;SDS011;8926;49.720;6.576;2023-02-28T10:07:17;2.73;;;2.60;;
17614;SDS011;8926;49.720;6.576;2023-02-28T10:09:44;2.70;;;2.50;;
17614;SDS011;8926;49.720;6.576;2023-02-28T10:12:15;3.00;;;2.70;;
17614;SDS011;8926;49.720;6.576;2023-02-28T10:14:42;3.63;;;3.27;;
17614;SDS011;8926;49.720;6.576;2023-02-28T10:17:16;3.60;;;3.30;;
17614;SDS011;8926;49.720;6.576;2023-02-28T10:22:25;2.73;;;2.53;;
17614;SDS011;8926;49.720;6.576;2023-02-28T10:24:56;2.80;;;2.60;;
17614;SDS011;8926;49.720;6.576;2023-02-28T10:27:32;3.00;;;2.80;;
17614;SDS011;8926;49.720;6.576;2023-02-28T10:29:59;4.30;;;2.90;;
17614;SDS011;8926;49.720;6.576;2023-02-28T10:32:29;3.60;;;3.30;;
17614;SDS011;8926;49.720;6.576;2023-02-28T10:34:57;3.17;;;2.97;;
17614;SDS011;8926;49.720;6.576;2023-02-28T10:37:42;3.37;;;3.07;;
17614;SDS011;8926;49.720;6.576;2023-02-28T10:40:31;2.50;;;2.30;;
17614;SDS011;8926;49.720;6.576;2023-02-28T10:43:21;2.80;;;2.60;;
17614;SDS011;8926;49.720;6.576;2023-02-28T10:45:53;3.40;;;3.10;;
17614;SDS011;8926;49.720;6.576;2023-02-28T10:53:24;2.70;;;2.50;;
17614;SDS011;8926;49.720;6.576;2023-02-28T10:56:09;2.83;;;2.70;;
17614;SDS011;8926;49.720;6.576;2023-02-28T11:03:55;3.60;;;3.23;;
17614;SDS011;8926;49.720;6.576;2023-02-28T11:06:23;3.67;;;3.33;;
17614;SDS011;8926;49.720;6.576;2023-02-28T11:08:53;3.10;;;2.90;;
17614;SDS011;8926;49.720;6.576;2023-02-28T11:11:24;2.90;;;2.70;;
17614;SDS011;8926;49.720;6.576;2023-02-28T11:13:55;3.10;;;2.90;;
17614;SDS011;8926;49.720;6.576;2023-02-28T11:16:34;3.83;;;3.23;;
17614;SDS011;8926;49.720;6.576;2023-02-28T11:19:00;3.43;;;3.13;;
17614;SDS011;8926;49.720;6.576;2023-02-28T11:21:31;2.90;;;2.60;;
17614;SDS011;8926;49.720;6.576;2023-02-28T11:24:44;3.97;;;3.67;;
17614;SDS011;8926;49.720;6.576;2023-02-28T11:26:56;3.87;;;3.57;;
17614;SDS011;8926;49.720;6.576;2023-02-28T11:29:23;4.70;;;4.27;;
17614;SDS011;8926;49.720;6.576;2023-02-28T11:34:28;3.50;;;3.20;;
17614;SDS011;8926;49.720;6.576;2023-02-28T11:36:54;4.00;;;3.70;;
17614;SDS011;8926;49.720;6.576;2023-02-28T11:39:21;4.07;;;3.77;;
17614;SDS011;8926;49.720;6.576;2023-02-28T11:57:52;3.80;;;3.50;;
17614;SDS011;8926;49.720;6.576;2023-02-28T12:00:36;3.33;;;3.13;;
17614;SDS011;8926;49.720;6.576;2023-02-28T12:03:26;3.87;;;3.57;;
17614;SDS011;8926;49.720;6.576;2023-02-28T12:09:01;3.40;;;3.20;;
17614;SDS011;8926;49.720;6.576;2023-02-28T12:11:46;3.47;;;3.17;;
17614;SDS011;8926;49.720;6.576;2023-02-28T12:17:38;3.17;;;2.90;;
17614;SDS011;8926;49.720;6.576;2023-02-28T12:23:23;3.53;;;3.23;;
17614;SDS011;8926;49.720;6.576;2023-02-28T12:28:28;3.03;;;2.80;;
17614;SDS011;8926;49.720;6.576;2023-02-28T12:33:42;4.17;;;3.83;;
17614;SDS011;8926;49.720;6.576;2023-02-28T12:36:11;3.83;;;3.23;;
17614;SDS011;8926;49.720;6.576;2023-02-28T12:38:45;3.90;;;3.60;;
17614;SDS011;8926;49.720;6.576;2023-02-28T12:44:30;3.70;;;3.40;;
17614;SDS011;8926;49.720;6.576;2023-02-28T12:47:04;4.70;;;4.37;;
17614;SDS011;8926;49.720;6.576;2023-02-28T12:49:38;3.30;;;3.10;;
17614;SDS011;8926;49.720;6.576;2023-02-28T12:52:11;3.77;;;3.50;;
17614;SDS011;8926;49.720;6.576;2023-02-28T12:54:51;3.03;;;2.80;;
17614;SDS011;8926;49.720;6.576;2023-02-28T12:57:28;3.80;;;3.40;;
17614;SDS011;8926;49.720;6.576;2023-02-28T12:59:58;3.67;;;3.37;;
17614;SDS011;8926;49.720;6.576;2023-02-28T13:10:39;4.13;;;3.73;;
17614;SDS011;8926;49.720;6.576;2023-02-28T13:13:11;5.00;;;4.60;;
17614;SDS011;8926;49.720;6.576;2023-02-28T13:15:40;5.17;;;4.67;;
17614;SDS011;8926;49.720;6.576;2023-02-28T13:18:22;4.50;;;4.10;;
17614;SDS011;8926;49.720;6.576;2023-02-28T13:20:55;3.83;;;3.53;;
17614;SDS011;8926;49.720;6.576;2023-02-28T13:34:36;4.07;;;3.77;;
17614;SDS011;8926;49.720;6.576;2023-02-28T13:47:39;6.60;;;5.67;;
17614;SDS011;8926;49.720;6.576;2023-02-28T13:52:57;3.90;;;3.57;;
17614;SDS011;8926;49.720;6.576;2023-02-28T13:55:51;9.87;;;8.47;;
17614;SDS011;8926;49.720;6.576;2023-02-28T13:58:25;3.53;;;3.33;;
17614;SDS011;8926;49.720;6.576;2023-02-28T14:09:06;3.60;;;3.40;;
17614;SDS011;8926;49.720;6.576;2023-02-28T14:11:44;2.87;;;2.67;;
17614;SDS011;8926;49.720;6.576;2023-02-28T14:14:53;3.17;;;2.97;;
17614;SDS011;8926;49.720;6.576;2023-02-28T14:17:22;3.47;;;2.80;;
17614;SDS011;8926;49.720;6.576;2023-02-28T14:19:48;3.83;;;3.47;;
17614;SDS011;8926;49.720;6.576;2023-02-28T14:33:31;3.23;;;3.03;;
17614;SDS011;8926;49.720;6.576;2023-02-28T14:38:50;3.67;;;3.47;;
17614;SDS011;8926;49.720;6.576;2023-02-28T14:41:22;3.67;;;3.37;;
17614;SDS011;8926;49.720;6.576;2023-02-28T14:43:50;3.00;;;2.80;;
17614;SDS011;8926;49.720;6.576;2023-02-28T14:46:17;2.70;;;2.50;;
17614;SDS011;8926;49.720;6.576;2023-02-28T14:48:45;2.70;;;2.50;;
17614;SDS011;8926;49.720;6.576;2023-02-28T14:51:12;3.50;;;3.20;;
17614;SDS011;8926;49.720;6.576;2023-02-28T14:53:44;3.77;;;3.47;;
17614;SDS011;8926;49.720;6.576;2023-02-28T14:56:19;4.00;;;3.70;;
17614;SDS011;8926;49.720;6.576;2023-02-28T14:58:51;3.53;;;3.23;;
17614;SDS011;8926;49.720;6.576;2023-02-28T15:01:19;3.00;;;2.80;;
17614;SDS011;8926;49.720;6.576;2023-02-28T15:03:46;3.43;;;3.13;;
17614;SDS011;8926;49.720;6.576;2023-02-28T15:06:13;4.07;;;3.73;;
17614;SDS011;8926;49.720;6.576;2023-02-28T15:08:42;3.53;;;3.33;;
17614;SDS011;8926;49.720;6.576;2023-02-28T15:11:11;3.90;;;3.60;;
17614;SDS011;8926;49.720;6.576;2023-02-28T15:13:40;4.10;;;3.80;;
17614;SDS011;8926;49.720;6.576;2023-02-28T15:18:45;3.33;;;3.13;;
17614;SDS011;8926;49.720;6.576;2023-02-28T15:21:21;2.30;;;2.20;;
17614;SDS011;8926;49.720;6.576;2023-02-28T15:23:54;3.70;;;3.40;;
17614;SDS011;8926;49.720;6.576;2023-02-28T15:26:29;3.70;;;3.30;;
17614;SDS011;8926;49.720;6.576;2023-02-28T15:28:58;3.73;;;3.43;;
17614;SDS011;8926;49.720;6.576;2023-02-28T15:31:27;3.73;;;3.43;;
17614;SDS011;8926;49.720;6.576;2023-02-28T15:33:56;3.77;;;3.47;;
17614;SDS011;8926;49.720;6.576;2023-02-28T15:36:28;3.60;;;3.37;;
17614;SDS011;8926;49.720;6.576;2023-02-28T15:38:56;2.80;;;2.60;;
17614;SDS011;8926;49.720;6.576;2023-02-28T15:41:35;3.23;;;3.03;;
17614;SDS011;8926;49.720;6.576;2023-02-28T15:47:01;2.97;;;2.77;;
17614;SDS011;8926;49.720;6.576;2023-02-28T15:49:29;4.73;;;4.33;;
17614;SDS011;8926;49.720;6.576;2023-02-28T15:52:04;4.30;;;4.00;;
17614;SDS011;8926;49.720;6.576;2023-02-28T15:54:31;3.00;;;2.80;;
17614;SDS011;8926;49.720;6.576;2023-02-28T15:57:10;2.93;;;2.73;;
17614;SDS011;8926;49.720;6.576;2023-02-28T15:59:42;3.23;;;3.00;;
17614;SDS011;8926;49.720;6.576;2023-02-28T16:02:17;3.93;;;3.63;;
17614;SDS011;8926;49.720;6.576;2023-02-28T16:07:57;3.70;;;3.47;;
17614;SDS011;8926;49.720;6.576;2023-02-28T16:10:25;4.00;;;3.70;;
17614;SDS011;8926;49.720;6.576;2023-02-28T16:12:53;3.40;;;3.17;;
17614;SDS011;8926;49.720;6.576;2023-02-28T16:15:26;3.13;;;2.93;;
17614;SDS011;8926;49.720;6.576;2023-02-28T16:17:54;4.87;;;3.30;;
17614;SDS011;8926;49.720;6.576;2023-02-28T16:20:27;3.10;;;2.80;;
17614;SDS011;8926;49.720;6.576;2023-02-28T16:22:54;2.67;;;2.47;;
17614;SDS011;8926;49.720;6.576;2023-02-28T16:25:23;3.23;;;3.03;;
17614;SDS011;8926;49.720;6.576;2023-02-28T16:27:57;3.47;;;3.27;;
17614;SDS011;8926;49.720;6.576;2023-02-28T16:30:25;3.70;;;3.40;;
17614;SDS011;8926;49.720;6.576;2023-02-28T16:32:53;3.70;;;3.50;;
17614;SDS011;8926;49.720;6.576;2023-02-28T16:35:20;3.40;;;3.20;;
17614;SDS011;8926;49.720;6.576;2023-02-28T16:37:46;3.20;;;3.00;;
17614;SDS011;8926;49.720;6.576;2023-02-28T16:40:22;3.77;;;3.57;;
17614;SDS011;8926;49.720;6.576;2023-02-28T16:42:50;3.10;;;2.90;;
17614;SDS011;8926;49.720;6.576;2023-02-28T16:45:18;5.57;;;5.17;;
17614;SDS011;8926;49.720;6.576;2023-02-28T16:47:46;5.30;;;4.90;;
17614;SDS011;8926;49.720;6.576;2023-02-28T16:50:13;4.30;;;4.00;;
17614;SDS011;8926;49.720;6.576;2023-02-28T16:52:40;3.20;;;3.00;;
17614;SDS011;8926;49.720;6.576;2023-02-28T16:55:06;3.33;;;3.07;;
17614;SDS011;8926;49.720;6.576;2023-02-28T16:57:31;3.20;;;3.00;;
17614;SDS011;8926;49.720;6.576;2023-02-28T16:59:56;3.80;;;3.50;;
17614;SDS011;8926;49.720;6.576;2023-02-28T17:02:22;5.17;;;4.77;;
17614;SDS011;8926;49.720;6.576;2023-02-28T17:04:47;3.50;;;3.30;;
17614;SDS011;8926;49.720;6.576;2023-02-28T17:07:13;3.10;;;2.90;;
17614;SDS011;8926;49.720;6.576;2023-02-28T17:09:44;3.83;;;3.53;;
17614;SDS011;8926;49.720;6.576;2023-02-28T17:12:09;3.07;;;2.80;;
17614;SDS011;8926;49.720;6.576;2023-02-28T17:14:36;2.20;;;2.10;;
17614;SDS011;8926;49.720;6.576;2023-02-28T17:17:03;3.63;;;3.33;;
17614;SDS011;8926;49.720;6.576;2023-02-28T17:19:29;2.93;;;2.73;;
17614;SDS011;8926;49.720;6.576;2023-02-28T17:21:55;3.47;;;3.20;;
17614;SDS011;8926;49.720;6.576;2023-02-28T17:24:20;4.37;;;3.97;;
17614;SDS011;8926;49.720;6.576;2023-02-28T17:26:46;5.77;;;5.03;;
17614;SDS011;8926;49.720;6.576;2023-02-28T17:29:13;5.03;;;4.53;;
17614;SDS011;8926;49.720;6.576;2023-02-28T17:31:43;5.50;;;4.93;;
17614;SDS011;8926;49.720;6.576;2023-02-28T17:34:09;4.20;;;3.90;;
17614;SDS011;8926;49.720;6.576;2023-02-28T17:36:35;5.27;;;4.80;;
17614;SDS011;8926;49.720;6.576;2023-02-28T17:39:01;4.40;;;4.00;;
17614;SDS011;8926;49.720;6.576;2023-02-28T17:41:28;4.40;;;4.10;;
17614;SDS011;8926;49.720;6.576;2023-02-28T17:43:55;5.43;;;4.93;;
17614;SDS011;8926;49.720;6.576;2023-02-28T17:46:21;4.83;;;4.33;;
17614;SDS011;8926;49.720;6.576;2023-02-28T17:48:48;4.50;;;4.10;;